Time;durP1;ratioP1;P1;durP2;ratioP2;P2;SDS_P1;SDS_P2;PMS_P1;PMS_P2;Temp;Humidity;BMP_temperature;BMP_pressure;BME280_temperature;BME280_humidity;BME280_pressure;Samples;Min_cycle;Max_cycle;Signal;HPM_P1;HPM_P2
2022/04/18 00:02:04;;;;;;;0.30;0.30;;;5.90;50.20;;;;;;5054066;28;20178;-68
2022/04/18 00:04:30;;;;;;;0.30;0.30;;;5.90;50.20;;;;;;5054252;28;20654;-68
2022/04/18 00:06:56;;;;;;;0.30;0.30;;;5.80;50.20;;;;;;5052949;28;20482;-67
2022/04/18 00:09:21;;;;;;;0.40;0.40;;;5.80;49.90;;;;;;5054025;28;20205;-68
2022/04/18 00:11:47;;;;;;;0.30;0.30;;;5.80;50.10;;;;;;5054022;28;20194;-68
2022/04/18 00:14:12;;;;;;;0.30;0.30;;;5.80;50.10;;;;;;5054257;28;20168;-68
2022/04/18 00:16:38;;;;;;;0.30;0.30;;;5.90;50.80;;;;;;5054129;28;20220;-67
2022/04/18 00:19:04;;;;;;;0.30;0.30;;;5.80;50.30;;;;;;5054076;28;20190;-68
2022/04/18 00:21:31;;;;;;;0.40;0.40;;;5.80;50.60;;;;;;5053940;28;20190;-68
2022/04/18 00:23:57;;;;;;;0.38;0.38;;;5.80;49.80;;;;;;5054128;28;20228;-69
2022/04/18 00:26:22;;;;;;;0.30;0.30;;;5.70;50.60;;;;;;5054391;28;20171;-68
2022/04/18 00:28:48;;;;;;;4.53;1.53;;;5.70;50.60;;;;;;5054010;28;20428;-68
2022/04/18 00:31:14;;;;;;;0.40;0.40;;;5.60;51.20;;;;;;5053599;28;20638;-68
2022/04/18 00:33:40;;;;;;;0.30;0.30;;;5.60;50.60;;;;;;5054022;28;20227;-68
2022/04/18 00:36:05;;;;;;;0.40;0.40;;;5.50;51.50;;;;;;5053861;28;20194;-68
2022/04/18 00:38:31;;;;;;;0.30;0.30;;;5.50;51.70;;;;;;5053895;28;20194;-68
2022/04/18 00:40:57;;;;;;;0.40;0.40;;;5.50;50.50;;;;;;5053585;28;20415;-68
2022/04/18 00:43:45;;;;;;;0.40;0.40;;;5.50;49.10;;;;;;5053635;28;20170;-68
2022/04/18 00:46:11;;;;;;;0.30;0.30;;;5.40;49.60;;;;;;5053898;28;20173;-68
2022/04/18 00:48:38;;;;;;;0.32;0.32;;;5.50;49.50;;;;;;5053661;28;20198;-68
2022/04/18 00:51:09;;;;;;;0.30;0.30;;;5.50;48.10;;;;;;5053336;28;20563;-68
2022/04/18 00:53:37;;;;;;;0.30;0.30;;;5.50;48.90;;;;;;5053696;28;20586;-68
2022/04/18 00:56:07;;;;;;;0.30;0.30;;;5.50;49.60;;;;;;5053518;28;20166;-68
2022/04/18 00:58:33;;;;;;;2.55;2.15;;;5.50;49.70;;;;;;5052127;28;20686;-68
2022/04/18 01:00:59;;;;;;;0.30;0.30;;;5.40;48.90;;;;;;5053404;28;20245;-67
2022/04/18 01:03:26;;;;;;;0.40;0.40;;;5.40;49.20;;;;;;5053577;28;20590;-68
2022/04/18 01:05:52;;;;;;;0.30;0.30;;;5.40;48.30;;;;;;5053588;28;20257;-69
2022/04/18 01:08:18;;;;;;;0.40;0.40;;;5.50;48.60;;;;;;5053393;28;20198;-68
2022/04/18 01:10:44;;;;;;;0.30;0.30;;;5.60;47.40;;;;;;5053446;28;20162;-68
2022/04/18 01:13:11;;;;;;;0.30;0.30;;;5.60;48.10;;;;;;5053364;28;20171;-68
2022/04/18 01:15:36;;;;;;;0.40;0.40;;;5.50;48.00;;;;;;5053395;28;20174;-69
2022/04/18 01:18:02;;;;;;;0.30;0.30;;;5.50;48.70;;;;;;5053273;28;20197;-67
2022/04/18 01:20:36;;;;;;;0.50;0.50;;;5.50;47.40;;;;;;5053163;28;20220;-68
2022/04/18 01:23:06;;;;;;;0.40;0.40;;;5.60;47.10;;;;;;5053175;28;20752;-67
2022/04/18 01:31:01;;;;;;;0.40;0.40;;;5.50;46.50;;;;;;5053151;28;20661;-68
2022/04/18 01:33:27;;;;;;;0.30;0.30;;;5.50;46.50;;;;;;5053147;28;20170;-68
2022/04/18 01:35:52;;;;;;;0.33;0.33;;;5.50;46.90;;;;;;5053568;28;20540;-68
2022/04/18 01:38:18;;;;;;;0.30;0.30;;;5.60;47.00;;;;;;5053194;28;20579;-68
2022/04/18 01:40:43;;;;;;;0.40;0.40;;;5.60;46.50;;;;;;5053086;28;20166;-67
2022/04/18 01:43:09;;;;;;;0.37;0.37;;;5.50;46.60;;;;;;5053028;28;20257;-68
2022/04/18 01:45:35;;;;;;;0.40;0.40;;;5.50;46.20;;;;;;5053139;28;20170;-68
2022/04/18 01:48:01;;;;;;;0.37;0.37;;;5.50;45.50;;;;;;5053131;28;20622;-67
2022/04/18 01:50:27;;;;;;;0.40;0.40;;;5.60;44.90;;;;;;5052831;28;20249;-68
2022/04/18 01:52:53;;;;;;;0.38;0.38;;;5.70;46.00;;;;;;5053182;28;20547;-67
2022/04/18 01:55:19;;;;;;;0.37;0.37;;;5.60;46.10;;;;;;5055770;28;20165;-68
2022/04/18 01:57:44;;;;;;;0.30;0.30;;;5.60;46.70;;;;;;5056676;28;20273;-68
2022/04/18 02:00:10;;;;;;;0.30;0.30;;;5.70;46.60;;;;;;5056491;28;20261;-68
2022/04/18 02:02:36;;;;;;;0.30;0.30;;;5.60;47.10;;;;;;5057127;28;20175;-69
2022/04/18 02:05:03;;;;;;;0.40;0.40;;;5.60;46.90;;;;;;5056663;28;20484;-68
2022/04/18 02:07:28;;;;;;;0.30;0.30;;;5.60;45.90;;;;;;5056742;28;20181;-67
2022/04/18 02:09:55;;;;;;;0.40;0.40;;;5.60;46.30;;;;;;5056401;28;20159;-68
2022/04/18 02:12:20;;;;;;;0.30;0.30;;;5.60;46.50;;;;;;5056736;28;20651;-68
2022/04/18 02:14:46;;;;;;;0.40;0.40;;;5.60;46.40;;;;;;5056650;28;20182;-68
2022/04/18 02:17:12;;;;;;;0.35;0.35;;;5.60;46.70;;;;;;5056613;28;20269;-67
2022/04/18 02:19:38;;;;;;;0.40;0.40;;;5.50;47.20;;;;;;5056295;28;20238;-67
2022/04/18 02:22:04;;;;;;;0.40;0.40;;;5.60;46.20;;;;;;5056005;28;20334;-68
2022/04/18 02:24:30;;;;;;;0.30;0.30;;;5.60;47.00;;;;;;5056520;28;20253;-68
2022/04/18 02:26:56;;;;;;;0.30;0.30;;;5.70;46.80;;;;;;5056237;28;20410;-67
2022/04/18 02:29:21;;;;;;;0.30;0.30;;;5.70;47.20;;;;;;5056062;28;20577;-68
2022/04/18 02:34:31;;;;;;;0.40;0.40;;;5.60;46.30;;;;;;5056309;28;20722;-68
2022/04/18 02:36:57;;;;;;;0.40;0.40;;;5.70;46.20;;;;;;5056152;28;20260;-68
2022/04/18 02:39:22;;;;;;;0.40;0.40;;;5.70;45.90;;;;;;5055969;28;20191;-68
2022/04/18 02:41:48;;;;;;;0.40;0.40;;;5.80;46.30;;;;;;5056015;28;20645;-68
2022/04/18 02:44:13;;;;;;;0.40;0.40;;;5.60;46.40;;;;;;5056076;28;20174;-69
2022/04/18 02:46:39;;;;;;;0.30;0.30;;;5.60;47.20;;;;;;5055901;28;20171;-68
2022/04/18 02:49:05;;;;;;;0.30;0.30;;;5.50;47.20;;;;;;5055820;28;20563;-68
2022/04/18 02:51:30;;;;;;;0.40;0.40;;;5.40;46.70;;;;;;5055646;28;20202;-68
2022/04/18 02:53:56;;;;;;;0.30;0.30;;;5.50;46.10;;;;;;5055866;28;20170;-68
2022/04/18 02:56:21;;;;;;;1.23;1.23;;;5.50;45.90;;;;;;5055848;28;20213;-68
2022/04/18 02:58:47;;;;;;;0.30;0.30;;;5.50;45.40;;;;;;5055615;28;20186;-68
2022/04/18 03:01:13;;;;;;;0.30;0.30;;;5.60;45.50;;;;;;5055446;28;20175;-68
2022/04/18 03:03:39;;;;;;;0.30;0.30;;;5.70;46.00;;;;;;5055766;28;20236;-68
2022/04/18 03:06:05;;;;;;;0.40;0.40;;;5.70;45.60;;;;;;5055679;28;20181;-68
2022/04/18 03:08:32;;;;;;;0.40;0.40;;;5.60;45.40;;;;;;5055508;28;20577;-68
2022/04/18 03:11:05;;;;;;;0.40;0.40;;;5.70;45.90;;;;;;5055174;28;20206;-68
2022/04/18 03:13:32;;;;;;;0.40;0.40;;;5.60;46.60;;;;;;5055638;28;20166;-68
2022/04/18 03:15:58;;;;;;;0.35;0.35;;;5.50;47.00;;;;;;5055462;28;20166;-68
2022/04/18 03:18:25;;;;;;;0.30;0.30;;;5.30;47.50;;;;;;5055273;28;20217;-68
2022/04/18 03:20:50;;;;;;;0.40;0.40;;;5.30;47.90;;;;;;5055280;28;20300;-68
2022/04/18 03:23:16;;;;;;;0.30;0.30;;;5.10;49.10;;;;;;5055265;28;20686;-68
2022/04/18 03:25:42;;;;;;;0.40;0.40;;;5.10;49.20;;;;;;5053972;28;20267;-68
2022/04/18 03:28:09;;;;;;;0.30;0.30;;;5.00;48.50;;;;;;5055167;28;20182;-68
2022/04/18 03:30:35;;;;;;;0.40;0.40;;;5.10;48.00;;;;;;5055062;28;20205;-69
2022/04/18 03:33:00;;;;;;;0.30;0.30;;;5.20;48.30;;;;;;5055089;28;20508;-68
2022/04/18 03:35:30;;;;;;;0.33;0.33;;;5.40;48.20;;;;;;5055135;28;20163;-68
2022/04/18 03:40:41;;;;;;;0.30;0.30;;;5.50;47.80;;;;;;5055133;28;20184;-68
2022/04/18 03:43:06;;;;;;;0.40;0.40;;;5.50;48.40;;;;;;5054850;28;20253;-67
2022/04/18 03:45:32;;;;;;;0.40;0.40;;;5.60;48.10;;;;;;5054816;28;20586;-67
2022/04/18 03:47:58;;;;;;;0.30;0.30;;;5.60;48.10;;;;;;5054688;28;20218;-67
2022/04/18 03:50:23;;;;;;;0.40;0.40;;;5.60;48.30;;;;;;5054507;28;20249;-67
2022/04/18 03:52:49;;;;;;;0.30;0.30;;;5.70;48.40;;;;;;5054630;28;20646;-68
2022/04/18 03:55:15;;;;;;;0.40;0.40;;;5.70;48.40;;;;;;5054484;28;20639;-68
2022/04/18 03:57:40;;;;;;;0.30;0.30;;;5.70;48.50;;;;;;5053145;28;20202;-68
2022/04/18 04:00:08;;;;;;;0.30;0.30;;;5.70;48.90;;;;;;5054279;28;20173;-68
2022/04/18 04:02:33;;;;;;;0.30;0.30;;;5.70;49.10;;;;;;5054510;28;20542;-68
2022/04/18 04:04:59;;;;;;;0.30;0.30;;;5.70;49.40;;;;;;5054506;28;20186;-68
2022/04/18 04:07:25;;;;;;;0.30;0.30;;;5.50;49.90;;;;;;5054343;28;20177;-68
2022/04/18 04:09:50;;;;;;;0.40;0.40;;;5.50;50.10;;;;;;5054080;28;20170;-68
2022/04/18 04:12:24;;;;;;;0.30;0.30;;;5.50;50.20;;;;;;5054265;28;20543;-67
2022/04/18 04:14:53;;;;;;;1.95;1.95;;;5.40;50.00;;;;;;5054179;28;20252;-68
2022/04/18 04:17:21;;;;;;;0.40;0.40;;;5.40;50.60;;;;;;5052488;28;20312;-68
2022/04/18 04:19:47;;;;;;;0.40;0.40;;;5.30;50.50;;;;;;5053857;28;20167;-68
2022/04/18 04:22:12;;;;;;;0.40;0.40;;;5.30;50.30;;;;;;5053812;28;20303;-68
2022/04/18 04:24:38;;;;;;;0.30;0.30;;;5.20;50.80;;;;;;5053980;28;20255;-68
2022/04/18 04:27:04;;;;;;;0.40;0.40;;;5.40;50.90;;;;;;5053919;28;20174;-68
2022/04/18 04:29:30;;;;;;;0.40;0.40;;;5.20;50.60;;;;;;5053958;28;20604;-68
2022/04/18 04:31:55;;;;;;;0.30;0.30;;;5.20;50.70;;;;;;5053803;28;20198;-68
2022/04/18 04:34:22;;;;;;;0.30;0.30;;;5.30;50.30;;;;;;5053982;28;20193;-68
2022/04/18 04:36:47;;;;;;;0.40;0.40;;;5.40;50.20;;;;;;5053970;28;20170;-68
2022/04/18 04:39:13;;;;;;;0.30;0.30;;;5.50;49.90;;;;;;5053700;28;20281;-68
2022/04/18 04:41:38;;;;;;;0.30;0.30;;;5.50;50.30;;;;;;5053688;28;20605;-67
2022/04/18 04:44:07;;;;;;;0.40;0.40;;;5.50;50.10;;;;;;5053943;28;20170;-68
2022/04/18 04:46:34;;;;;;;0.40;0.40;;;5.50;50.10;;;;;;5053815;28;20221;-68
2022/04/18 04:49:00;;;;;;;0.30;0.30;;;5.60;50.20;;;;;;5053772;28;20271;-68
2022/04/18 04:51:25;;;;;;;0.40;0.40;;;5.50;50.30;;;;;;5053466;28;20194;-67
2022/04/18 04:53:51;;;;;;;0.30;0.30;;;5.60;50.20;;;;;;5053760;28;20184;-67
2022/04/18 04:56:17;;;;;;;0.30;0.30;;;5.60;50.50;;;;;;5053581;28;20165;-68
2022/04/18 04:58:43;;;;;;;0.37;0.37;;;5.60;50.20;;;;;;5053527;28;20239;-68
2022/04/18 05:01:09;;;;;;;0.30;0.30;;;5.50;49.60;;;;;;5053251;28;20417;-68
2022/04/18 05:03:35;;;;;;;0.30;0.30;;;5.60;49.80;;;;;;5052292;28;20200;-68
2022/04/18 05:06:00;;;;;;;0.40;0.40;;;5.80;50.00;;;;;;5053872;28;20165;-68
2022/04/18 05:08:26;;;;;;;0.30;0.30;;;5.80;50.00;;;;;;5053311;28;20190;-68
2022/04/18 05:10:55;;;;;;;0.30;0.30;;;5.90;49.90;;;;;;5053340;28;20170;-68
2022/04/18 05:13:23;;;;;;;0.30;0.30;;;5.90;50.10;;;;;;5053454;28;20173;-68
2022/04/18 05:15:49;;;;;;;0.30;0.30;;;5.90;49.80;;;;;;5053519;28;20178;-69
2022/04/18 05:18:15;;;;;;;0.40;0.40;;;5.90;49.60;;;;;;5053192;28;20182;-68
2022/04/18 05:20:40;;;;;;;0.30;0.30;;;6.00;49.90;;;;;;5053134;28;20643;-67
2022/04/18 05:23:06;;;;;;;0.40;0.40;;;6.10;49.70;;;;;;5053251;28;20186;-67
2022/04/18 05:25:32;;;;;;;0.30;0.30;;;6.10;49.20;;;;;;5053313;28;20174;-68
2022/04/18 05:27:57;;;;;;;0.40;0.40;;;6.20;49.40;;;;;;5053307;28;20596;-68
2022/04/18 05:30:23;;;;;;;0.50;0.50;;;6.20;49.00;;;;;;5056048;28;20162;-69
2022/04/18 05:32:49;;;;;;;1.20;1.20;;;6.30;48.70;;;;;;5057291;28;20193;-68
2022/04/18 05:35:15;;;;;;;0.30;0.30;;;6.70;49.00;;;;;;5057203;28;20171;-69
2022/04/18 05:37:41;;;;;;;0.40;0.40;;;7.80;48.30;;;;;;5057488;28;20187;-68
2022/04/18 05:40:08;;;;;;;0.30;0.30;;;9.30;47.00;;;;;;5057247;28;20193;-69
2022/04/18 05:42:34;;;;;;;0.30;0.30;;;10.90;43.80;;;;;;5057198;28;20203;-68
2022/04/18 05:44:59;;;;;;;0.30;0.30;;;12.40;41.40;;;;;;5057197;28;20524;-68
2022/04/18 05:47:25;;;;;;;0.30;0.30;;;13.40;37.90;;;;;;5057091;28;20404;-69
2022/04/18 05:49:50;;;;;;;0.30;0.30;;;13.80;36.20;;;;;;5056840;28;20170;-68
2022/04/18 05:52:16;;;;;;;0.30;0.30;;;14.40;35.70;;;;;;5056868;28;20689;-69
2022/04/18 05:54:42;;;;;;;0.40;0.40;;;15.00;34.20;;;;;;5056957;28;20166;-68
2022/04/18 05:57:08;;;;;;;0.30;0.30;;;16.10;34.00;;;;;;5057143;28;20308;-70
2022/04/18 05:59:33;;;;;;;0.40;0.40;;;16.80;31.70;;;;;;5056668;28;20416;-68
2022/04/18 06:01:59;;;;;;;0.30;0.30;;;17.50;31.60;;;;;;5056679;28;20174;-69
2022/04/18 06:04:25;;;;;;;0.30;0.30;;;17.70;32.30;;;;;;5056682;28;20249;-69
2022/04/18 06:06:50;;;;;;;0.30;0.30;;;17.60;30.80;;;;;;5056797;28;20182;-69
2022/04/18 06:09:16;;;;;;;0.30;0.30;;;18.10;31.70;;;;;;5056554;28;20218;-69
2022/04/18 06:11:42;;;;;;;0.30;0.30;;;18.60;29.60;;;;;;5056503;28;20243;-69
2022/04/18 06:14:10;;;;;;;0.30;0.30;;;17.80;29.50;;;;;;5056641;28;20177;-69
2022/04/18 06:16:35;;;;;;;0.30;0.30;;;18.60;29.60;;;;;;5056678;28;20177;-69
2022/04/18 06:19:01;;;;;;;0.30;0.30;;;18.90;29.10;;;;;;5056365;28;20937;-69
2022/04/18 06:21:27;;;;;;;0.30;0.30;;;18.60;29.50;;;;;;5055823;28;20261;-69
2022/04/18 06:23:52;;;;;;;0.30;0.30;;;17.90;30.10;;;;;;5055518;28;20261;-68
2022/04/18 06:26:18;;;;;;;0.30;0.30;;;17.30;29.60;;;;;;5055199;28;20174;-68
2022/04/18 06:28:44;;;;;;;0.30;0.30;;;16.60;29.80;;;;;;5054985;28;20432;-69
2022/04/18 06:31:09;;;;;;;0.30;0.30;;;16.50;30.60;;;;;;5054767;28;20236;-68
2022/04/18 06:33:35;;;;;;;0.30;0.30;;;16.80;31.80;;;;;;5055196;28;20174;-69
2022/04/18 06:36:02;;;;;;;0.30;0.30;;;16.90;31.10;;;;;;5055005;28;20253;-68
2022/04/18 06:38:28;;;;;;;0.30;0.30;;;16.80;30.70;;;;;;5055045;28;20535;-69
2022/04/18 06:40:56;;;;;;;0.30;0.30;;;17.10;31.30;;;;;;5054265;28;20404;-69
2022/04/18 06:43:22;;;;;;;0.30;0.30;;;16.90;30.50;;;;;;5054915;28;20413;-69
2022/04/18 06:45:48;;;;;;;0.30;0.30;;;16.80;30.10;;;;;;5054843;28;20397;-69
2022/04/18 06:48:13;;;;;;;0.40;0.40;;;16.40;30.80;;;;;;5054594;28;20570;-68
2022/04/18 06:50:39;;;;;;;0.40;0.40;;;15.60;30.10;;;;;;5054487;28;20626;-69
2022/04/18 06:53:05;;;;;;;0.30;0.30;;;14.90;32.00;;;;;;5054839;28;20203;-69
2022/04/18 06:56:58;;;;;;;0.30;0.30;;;14.30;32.00;;;;;;5055090;28;20175;-68
2022/04/18 06:58:16;;;;;;;0.30;0.30;;;14.30;33.10;;;;;;5054394;28;20444;-69
2022/04/18 07:00:42;;;;;;;0.30;0.30;;;14.30;32.70;;;;;;5054514;28;20784;-69
2022/04/18 07:03:08;;;;;;;0.30;0.30;;;14.50;31.50;;;;;;5054619;28;20177;-69
2022/04/18 07:05:33;;;;;;;0.30;0.30;;;15.20;33.60;;;;;;5054544;28;20173;-69
2022/04/18 07:07:59;;;;;;;0.30;0.30;;;16.60;32.30;;;;;;5054509;28;20189;-69
2022/04/18 07:10:24;;;;;;;0.30;0.30;;;18.30;28.90;;;;;;5054190;28;20646;-69
2022/04/18 07:12:50;;;;;;;0.30;0.30;;;20.00;28.30;;;;;;5054288;28;20228;-69
2022/04/18 07:15:16;;;;;;;0.30;0.30;;;21.20;27.90;;;;;;5054104;28;20202;-70
2022/04/18 07:17:41;;;;;;;0.30;0.30;;;23.00;27.00;;;;;;5054196;28;20260;-69
2022/04/18 07:20:07;;;;;;;0.30;0.30;;;24.80;25.00;;;;;;5054081;28;20170;-69
2022/04/18 07:22:40;;;;;;;0.30;0.30;;;24.50;23.20;;;;;;5049062;28;141323;-69
2022/04/18 07:25:07;;;;;;;0.30;0.30;;;25.20;23.40;;;;;;5055171;28;20504;-70
2022/04/18 07:27:33;;;;;;;0.30;0.30;;;26.70;22.40;;;;;;5055156;28;20400;-70
2022/04/18 07:29:58;;;;;;;0.40;0.40;;;27.50;20.90;;;;;;5055087;28;20412;-69
2022/04/18 07:32:24;;;;;;;0.30;0.30;;;26.50;19.80;;;;;;5055007;28;20551;-69
2022/04/18 07:34:50;;;;;;;0.30;0.30;;;26.00;20.10;;;;;;5055077;28;20253;-70
2022/04/18 07:37:15;;;;;;;0.30;0.30;;;26.30;19.80;;;;;;5055054;28;20170;-69
2022/04/18 07:39:41;;;;;;;0.30;0.30;;;26.60;20.20;;;;;;5054787;28;20201;-70
2022/04/18 07:42:07;;;;;;;0.30;0.30;;;26.20;19.20;;;;;;5054799;28;20174;-70
2022/04/18 07:44:33;;;;;;;0.30;0.30;;;27.00;20.40;;;;;;5055180;28;20174;-69
2022/04/18 07:46:58;;;;;;;3.33;0.43;;;27.90;18.60;;;;;;5054939;28;20182;-70
2022/04/18 07:49:24;;;;;;;0.60;0.60;;;28.50;18.20;;;;;;5054808;28;20316;-70
2022/04/18 07:51:50;;;;;;;0.30;0.30;;;27.80;17.00;;;;;;5053813;28;20681;-69
2022/04/18 07:54:18;;;;;;;0.30;0.30;;;26.50;17.20;;;;;;5054796;28;20409;-69
2022/04/18 07:56:44;;;;;;;0.30;0.30;;;25.40;17.70;;;;;;5054688;28;20486;-69
2022/04/18 07:59:10;;;;;;;0.30;0.30;;;24.20;18.50;;;;;;5054637;28;20944;-69
2022/04/18 08:01:36;;;;;;;0.30;0.30;;;24.60;18.50;;;;;;5053092;28;20436;-70
2022/04/18 08:04:02;;;;;;;0.30;0.30;;;25.50;19.20;;;;;;5054609;28;20405;-70
2022/04/18 08:06:29;;;;;;;0.30;0.30;;;26.70;18.00;;;;;;5054579;28;20220;-69
2022/04/18 08:08:55;;;;;;;0.30;0.30;;;26.50;17.80;;;;;;5054234;28;20475;-69
2022/04/18 08:11:21;;;;;;;0.30;0.30;;;26.80;18.00;;;;;;5053905;28;20480;-69
2022/04/18 08:13:48;;;;;;;0.50;0.50;;;26.90;18.20;;;;;;5054400;28;20170;-70
2022/04/18 08:16:14;;;;;;;0.30;0.30;;;27.50;18.80;;;;;;5054410;28;20796;-69
2022/04/18 08:18:44;;;;;;;0.30;0.30;;;27.40;17.60;;;;;;5054048;28;20431;-70
2022/04/18 08:21:10;;;;;;;0.40;0.40;;;28.00;18.00;;;;;;5053822;28;20220;-69
2022/04/18 08:23:36;;;;;;;0.30;0.30;;;28.00;17.90;;;;;;5054208;28;20815;-70
2022/04/18 08:26:03;;;;;;;0.30;0.30;;;27.60;17.10;;;;;;5054238;28;20401;-69
2022/04/18 08:28:29;;;;;;;0.30;0.30;;;27.00;17.40;;;;;;5053976;28;20471;-69
2022/04/18 08:30:55;;;;;;;0.30;0.30;;;27.50;17.60;;;;;;5053768;28;20405;-69
2022/04/18 08:33:21;;;;;;;0.30;0.30;;;28.80;18.80;;;;;;5053845;28;20404;-69
2022/04/18 08:35:47;;;;;;;0.30;0.30;;;30.20;17.20;;;;;;5053982;28;20540;-71
2022/04/18 08:38:13;;;;;;;0.43;0.43;;;31.20;16.30;;;;;;5053833;28;20428;-70
2022/04/18 08:40:42;;;;;;;0.30;0.30;;;30.80;15.40;;;;;;5053796;28;20175;-70
2022/04/18 08:43:08;;;;;;;0.30;0.30;;;29.60;15.60;;;;;;5053691;28;20176;-69
2022/04/18 08:45:35;;;;;;;0.30;0.30;;;28.90;16.40;;;;;;5053831;28;20420;-69
2022/04/18 08:53:30;;;;;;;0.30;0.30;;;26.80;16.50;;;;;;5053606;28;20432;-69
2022/04/18 08:55:58;;;;;;;0.30;0.30;;;26.60;17.60;;;;;;5053609;28;20423;-70
2022/04/18 08:58:26;;;;;;;0.30;0.30;;;26.40;17.40;;;;;;5053553;28;20773;-70
2022/04/18 09:00:53;;;;;;;0.30;0.30;;;26.80;17.80;;;;;;5053225;28;20412;-69
2022/04/18 09:03:19;;;;;;;0.30;0.30;;;27.20;17.30;;;;;;5053353;28;20535;-69
2022/04/18 09:05:45;;;;;;;0.30;0.30;;;27.60;17.20;;;;;;5053406;28;20433;-70
2022/04/18 09:08:11;;;;;;;0.30;0.30;;;27.90;17.20;;;;;;5053424;28;20190;-69
2022/04/18 09:10:38;;;;;;;0.30;0.30;;;27.50;17.50;;;;;;5053114;28;20427;-69
2022/04/18 09:13:07;;;;;;;0.30;0.30;;;27.60;17.60;;;;;;5053160;28;20304;-69
2022/04/18 09:15:51;;;;;;;0.30;0.30;;;27.70;17.50;;;;;;5053379;28;20765;-69
2022/04/18 09:18:19;;;;;;;0.30;0.30;;;28.10;18.10;;;;;;5053320;28;20417;-69
2022/04/18 09:20:45;;;;;;;0.30;0.30;;;29.30;17.70;;;;;;5051802;28;20551;-69
2022/04/18 09:23:26;;;;;;;0.97;0.87;;;30.10;17.80;;;;;;5053120;28;20921;-70
2022/04/18 09:25:57;;;;;;;0.40;0.40;;;29.20;17.20;;;;;;5053330;28;20891;-69
2022/04/18 09:28:35;;;;;;;0.30;0.30;;;28.50;17.50;;;;;;5052587;28;20425;-69
2022/04/18 09:31:07;;;;;;;0.30;0.30;;;28.40;17.00;;;;;;5052780;28;20427;-70
2022/04/18 09:33:58;;;;;;;0.30;0.30;;;27.90;16.00;;;;;;5053041;28;20404;-69
2022/04/18 09:36:24;;;;;;;0.30;0.30;;;28.10;16.10;;;;;;5053198;28;20959;-70
2022/04/18 09:38:52;;;;;;;0.40;0.40;;;27.00;17.00;;;;;;5052843;28;20507;-69
2022/04/18 09:41:25;;;;;;;0.30;0.30;;;27.60;18.30;;;;;;5052846;28;20457;-70
2022/04/18 09:43:53;;;;;;;0.30;0.30;;;27.90;18.60;;;;;;5053035;28;20405;-70
2022/04/18 09:46:19;;;;;;;0.30;0.30;;;27.90;17.70;;;;;;5053171;28;20411;-69
2022/04/18 09:48:49;;;;;;;0.30;0.30;;;27.20;19.00;;;;;;5052837;28;20422;-69
2022/04/18 09:51:34;;;;;;;0.30;0.30;;;27.10;18.50;;;;;;5052717;28;20452;-69
2022/04/18 09:54:00;;;;;;;0.40;0.40;;;26.80;17.70;;;;;;5053240;28;20745;-70
2022/04/18 09:56:29;;;;;;;0.30;0.30;;;26.80;17.50;;;;;;5052923;28;20396;-69
2022/04/18 09:58:58;;;;;;;0.30;0.30;;;26.70;17.30;;;;;;5052775;28;20424;-70
2022/04/18 10:01:24;;;;;;;0.30;0.30;;;27.00;17.40;;;;;;5052431;28;20755;-69
2022/04/18 10:03:52;;;;;;;0.30;0.30;;;26.10;16.20;;;;;;5053155;28;20411;-69
2022/04/18 10:06:19;;;;;;;0.30;0.30;;;26.60;18.40;;;;;;5052900;28;20877;-69
2022/04/18 10:08:45;;;;;;;0.40;0.40;;;26.50;18.10;;;;;;5052695;28;20424;-69
2022/04/18 10:11:14;;;;;;;0.30;0.30;;;26.10;19.80;;;;;;5052676;28;20451;-70
2022/04/18 10:13:39;;;;;;;0.40;0.40;;;25.70;19.00;;;;;;5052958;28;20462;-70
2022/04/18 10:16:06;;;;;;;0.30;0.30;;;25.90;18.70;;;;;;5055163;28;20813;-69
2022/04/18 10:18:41;;;;;;;0.30;0.30;;;25.90;19.40;;;;;;5056457;28;20681;-69
2022/04/18 10:21:07;;;;;;;0.37;0.37;;;26.00;19.40;;;;;;5056102;28;20432;-69
2022/04/18 10:23:50;;;;;;;0.30;0.30;;;25.50;20.20;;;;;;5056415;28;20828;-69
2022/04/18 10:26:45;;;;;;;0.60;0.60;;;25.30;20.10;;;;;;5056499;28;20485;-69
2022/04/18 10:29:18;;;;;;;0.30;0.30;;;25.00;20.50;;;;;;5056042;28;20397;-69
2022/04/18 10:31:45;;;;;;;0.30;0.30;;;24.50;20.00;;;;;;5056079;28;20444;-69
2022/04/18 10:34:13;;;;;;;0.30;0.30;;;24.00;21.00;;;;;;5056250;28;20502;-69
2022/04/18 10:36:50;;;;;;;0.30;0.30;;;23.10;20.00;;;;;;5056298;28;20406;-69
2022/04/18 10:39:16;;;;;;;0.30;0.30;;;22.90;21.20;;;;;;5056656;28;20414;-69
2022/04/18 10:41:44;;;;;;;0.30;0.30;;;22.70;22.10;;;;;;5055703;28;20898;-69
2022/04/18 10:44:14;;;;;;;0.30;0.30;;;22.60;21.90;;;;;;5055867;28;20953;-69
2022/04/18 10:46:56;;;;;;;0.47;0.40;;;22.70;21.70;;;;;;5055999;28;20498;-69
2022/04/18 10:49:24;;;;;;;0.30;0.30;;;23.10;22.80;;;;;;5055723;28;20425;-70
2022/04/18 10:51:52;;;;;;;0.30;0.30;;;22.90;22.70;;;;;;5055569;28;20454;-70
2022/04/18 10:54:20;;;;;;;0.30;0.30;;;22.60;22.00;;;;;;5055843;28;20455;-69
2022/04/18 10:56:56;;;;;;;0.30;0.30;;;21.80;22.00;;;;;;5056117;28;20401;-69
2022/04/18 10:59:29;;;;;;;0.30;0.30;;;22.00;22.70;;;;;;5055724;28;20758;-70
2022/04/18 11:02:01;;;;;;;0.30;0.30;;;21.80;22.30;;;;;;5056215;28;20951;-70
2022/04/18 11:04:31;;;;;;;0.30;0.30;;;21.40;23.00;;;;;;5055657;28;20401;-70
2022/04/18 11:07:00;;;;;;;0.33;0.33;;;20.80;24.00;;;;;;5055614;28;20412;-70
2022/04/18 11:09:28;;;;;;;0.30;0.30;;;20.80;24.60;;;;;;5055458;28;20435;-70
2022/04/18 11:12:04;;;;;;;0.30;0.30;;;20.90;25.60;;;;;;5055366;28;20448;-70
2022/04/18 11:14:48;;;;;;;0.30;0.30;;;20.70;23.80;;;;;;5055620;28;20935;-70
2022/04/18 11:17:31;;;;;;;0.30;0.30;;;20.30;23.90;;;;;;5055625;28;20823;-70
2022/04/18 11:19:57;;;;;;;0.40;0.40;;;19.90;24.20;;;;;;5055175;28;20461;-71
2022/04/18 11:22:24;;;;;;;0.30;0.30;;;19.80;26.20;;;;;;5055213;28;20426;-70
2022/04/18 11:24:51;;;;;;;0.30;0.30;;;19.60;25.00;;;;;;5055325;28;20401;-70
2022/04/18 11:27:18;;;;;;;0.30;0.30;;;19.00;26.80;;;;;;5053913;28;20408;-70
2022/04/18 11:30:08;;;;;;;0.30;0.30;;;19.10;25.30;;;;;;5054868;28;20434;-70
2022/04/18 11:32:38;;;;;;;0.30;0.30;;;19.00;25.10;;;;;;5055265;28;20979;-70
2022/04/18 11:35:07;;;;;;;0.40;0.40;;;18.80;25.60;;;;;;5055274;28;20400;-70
2022/04/18 11:37:43;;;;;;;0.30;0.30;;;18.40;27.00;;;;;;5055058;28;20467;-70
2022/04/18 11:40:18;;;;;;;0.30;0.30;;;18.50;25.00;;;;;;5054811;28;20393;-70
2022/04/18 11:42:45;;;;;;;0.30;0.30;;;18.60;26.20;;;;;;5055051;28;20409;-70
2022/04/18 11:45:22;;;;;;;0.30;0.30;;;18.60;25.40;;;;;;5055031;28;20793;-70
2022/04/18 11:47:48;;;;;;;0.30;0.30;;;18.60;24.90;;;;;;5054957;28;20949;-70
2022/04/18 11:50:24;;;;;;;0.40;0.40;;;18.50;25.30;;;;;;5054559;28;20758;-70
2022/04/18 11:53:02;;;;;;;0.30;0.30;;;18.00;25.00;;;;;;5054905;28;20465;-70
2022/04/18 11:55:28;;;;;;;0.40;0.40;;;17.90;26.20;;;;;;5054921;28;20804;-70
2022/04/18 11:57:54;;;;;;;0.30;0.30;;;17.80;25.60;;;;;;5054711;28;20445;-70
2022/04/18 12:08:46;;;;;;;0.30;0.30;;;18.10;26.70;;;;;;5054521;28;20486;-70
2022/04/18 12:11:12;;;;;;;0.50;0.50;;;18.00;25.90;;;;;;5054218;28;20929;-70
2022/04/18 12:13:46;;;;;;;0.30;0.30;;;17.80;24.90;;;;;;5054426;28;20416;-71
2022/04/18 12:16:19;;;;;;;0.30;0.30;;;17.60;25.30;;;;;;5054190;28;20408;-70
2022/04/18 12:18:45;;;;;;;0.30;0.30;;;17.50;25.20;;;;;;5054273;28;20431;-70
2022/04/18 12:21:14;;;;;;;0.30;0.30;;;17.40;25.40;;;;;;5053759;28;20404;-70
2022/04/18 12:23:40;;;;;;;0.30;0.30;;;17.40;26.40;;;;;;5054111;28;20399;-70
2022/04/18 12:26:12;;;;;;;0.30;0.30;;;17.40;25.40;;;;;;5054022;28;20754;-70
2022/04/18 12:28:38;;;;;;;0.30;0.30;;;17.40;25.40;;;;;;5054058;28;20186;-70
2022/04/18 12:31:09;;;;;;;0.30;0.30;;;17.40;25.10;;;;;;5053668;28;20812;-70
2022/04/18 12:33:48;;;;;;;0.30;0.30;;;17.40;26.20;;;;;;5054212;28;20181;-70
2022/04/18 12:36:27;;;;;;;0.40;0.40;;;17.20;27.00;;;;;;5054051;28;20478;-71
2022/04/18 12:38:54;;;;;;;0.30;0.30;;;17.60;27.10;;;;;;5053343;28;20424;-71
2022/04/18 12:41:33;;;;;;;0.50;0.50;;;17.50;26.60;;;;;;5053726;28;20401;-71
2022/04/18 12:43:59;;;;;;;0.30;0.30;;;17.50;28.00;;;;;;5053800;28;20470;-71
2022/04/18 12:46:32;;;;;;;0.43;0.43;;;17.70;26.80;;;;;;5053714;28;20409;-70
2022/04/18 12:49:05;;;;;;;0.30;0.30;;;17.90;26.40;;;;;;5053651;28;20838;-70
2022/04/18 12:51:37;;;;;;;0.30;0.30;;;18.10;26.80;;;;;;5052249;28;20531;-70
2022/04/18 12:54:03;;;;;;;0.30;0.30;;;18.30;26.50;;;;;;5053769;28;20405;-70
2022/04/18 12:56:29;;;;;;;0.30;0.30;;;18.20;25.90;;;;;;5053748;28;20873;-71
2022/04/18 12:58:55;;;;;;;0.30;0.30;;;18.10;26.50;;;;;;5052239;28;20251;-70
2022/04/18 13:01:23;;;;;;;0.30;0.30;;;17.80;25.70;;;;;;5053269;28;20491;-70
2022/04/18 13:03:51;;;;;;;0.30;0.30;;;17.50;25.90;;;;;;5053612;28;20182;-71
2022/04/18 13:06:22;;;;;;;0.40;0.40;;;17.40;27.10;;;;;;5053562;28;20757;-70
2022/04/18 13:08:48;;;;;;;0.30;0.30;;;17.40;26.80;;;;;;5053440;28;20424;-71
2022/04/18 13:11:14;;;;;;;0.30;0.30;;;17.40;26.80;;;;;;5053106;28;20454;-70
2022/04/18 13:13:42;;;;;;;0.40;0.40;;;17.50;27.10;;;;;;5053424;28;20263;-70
2022/04/18 13:16:24;;;;;;;0.40;0.40;;;17.50;27.20;;;;;;5053448;28;20401;-70
2022/04/18 13:19:01;;;;;;;0.30;0.30;;;17.50;26.40;;;;;;5051957;28;20443;-70